Time;durP1;ratioP1;P1;durP2;ratioP2;P2;SDS_P1;SDS_P2;PMS_P1;PMS_P2;Temp;Humidity;BMP_temperature;BMP_pressure;BME280_temperature;BME280_humidity;BME280_pressure;Samples;Min_cycle;Max_cycle;Signal;HPM_P1;HPM_P2
2023/11/24 00:00:52;;;;;;;8.80;3.00;;;10.20;99.90;;;;;;5031744;28;20516;-67
2023/11/24 00:03:18;;;;;;;13.03;3.43;;;10.10;99.90;;;;;;5031472;28;20424;-68
2023/11/24 00:05:44;;;;;;;9.27;2.93;;;10.20;99.90;;;;;;5032613;28;20190;-68
2023/11/24 00:08:10;;;;;;;11.50;3.80;;;10.10;99.90;;;;;;5029968;28;20436;-68
2023/11/24 00:10:36;;;;;;;8.67;3.10;;;10.20;99.90;;;;;;5031894;28;20454;-68
2023/11/24 00:13:02;;;;;;;11.90;3.10;;;10.20;99.90;;;;;;5030886;28;20201;-68
2023/11/24 00:15:28;;;;;;;8.13;2.27;;;10.20;99.90;;;;;;5030963;28;20426;-68
2023/11/24 00:17:53;;;;;;;9.17;3.03;;;10.10;99.90;;;;;;5031985;28;20194;-68
2023/11/24 00:20:19;;;;;;;6.13;2.30;;;10.10;99.90;;;;;;5031366;28;20664;-68
2023/11/24 00:22:45;;;;;;;7.53;1.80;;;10.00;99.90;;;;;;5031935;28;20196;-68
2023/11/24 00:25:12;;;;;;;8.13;1.90;;;10.00;99.90;;;;;;5029927;28;20753;-68
2023/11/24 00:27:38;;;;;;;8.37;2.83;;;9.90;99.90;;;;;;5032354;28;20182;-68
2023/11/24 00:30:05;;;;;;;4.80;1.40;;;9.90;99.90;;;;;;5031508;28;20433;-68
2023/11/24 00:32:30;;;;;;;5.80;1.60;;;9.80;99.90;;;;;;5031050;28;20457;-67
2023/11/24 00:34:57;;;;;;;5.87;1.80;;;9.70;99.90;;;;;;5031744;28;20539;-67
2023/11/24 00:37:23;;;;;;;8.10;2.00;;;9.60;99.90;;;;;;5030133;28;20217;-68
2023/11/24 00:39:51;;;;;;;4.40;1.70;;;9.50;99.90;;;;;;5031590;28;20444;-68
2023/11/24 00:42:17;;;;;;;12.40;2.57;;;9.50;99.90;;;;;;5030340;28;20182;-67
2023/11/24 00:44:42;;;;;;;5.20;1.63;;;9.50;99.90;;;;;;5030655;28;20440;-68
2023/11/24 00:47:08;;;;;;;7.00;1.97;;;9.50;99.90;;;;;;5030305;28;20197;-67
2023/11/24 00:49:34;;;;;;;5.90;1.83;;;9.50;99.90;;;;;;5032247;28;20265;-68
2023/11/24 00:52:03;;;;;;;7.00;2.30;;;9.40;99.90;;;;;;5031302;28;20191;-68
2023/11/24 00:54:29;;;;;;;6.37;1.80;;;9.40;99.90;;;;;;5028908;28;21029;-68
2023/11/24 00:56:55;;;;;;;10.40;1.57;;;9.40;99.90;;;;;;5031159;28;20502;-68
2023/11/24 00:59:20;;;;;;;8.33;1.80;;;9.40;99.90;;;;;;5030266;28;20197;-67
2023/11/24 01:01:46;;;;;;;6.17;1.80;;;9.50;99.90;;;;;;5030744;28;20190;-68
2023/11/24 01:04:12;;;;;;;7.80;1.47;;;9.40;99.90;;;;;;5028321;28;20186;-68
2023/11/24 01:06:38;;;;;;;6.70;1.93;;;9.40;99.90;;;;;;5031181;28;20598;-68
2023/11/24 01:09:04;;;;;;;5.70;1.60;;;9.40;99.90;;;;;;5031081;28;20485;-68
2023/11/24 01:11:30;;;;;;;7.53;2.03;;;9.30;99.90;;;;;;5031012;28;20185;-68
2023/11/24 01:13:56;;;;;;;4.37;1.20;;;9.20;99.90;;;;;;5031242;28;20431;-68
2023/11/24 01:16:22;;;;;;;5.17;1.53;;;9.00;99.90;;;;;;5030022;28;20981;-67
2023/11/24 01:18:49;;;;;;;6.50;1.80;;;8.90;99.90;;;;;;5029519;28;20185;-68
2023/11/24 01:21:16;;;;;;;6.03;1.80;;;8.80;99.90;;;;;;5030171;28;20273;-68
2023/11/24 01:23:43;;;;;;;4.60;1.30;;;8.80;99.90;;;;;;5043653;28;20440;-68
2023/11/24 01:26:11;;;;;;;6.63;1.47;;;8.80;99.90;;;;;;5034904;28;20432;-68
2023/11/24 01:28:38;;;;;;;3.40;1.20;;;8.90;99.90;;;;;;5030500;28;20960;-67
2023/11/24 01:31:04;;;;;;;5.20;1.20;;;8.90;99.90;;;;;;5045003;28;20519;-68
2023/11/24 01:33:30;;;;;;;4.67;1.23;;;9.00;99.90;;;;;;5027440;28;20456;-68
2023/11/24 01:35:57;;;;;;;6.03;1.27;;;9.00;99.90;;;;;;5029958;28;20616;-67
2023/11/24 01:38:23;;;;;;;2.90;1.40;;;9.00;99.90;;;;;;5030334;28;20284;-67
2023/11/24 01:40:50;;;;;;;4.70;1.63;;;8.90;99.90;;;;;;5030100;28;20554;-67
2023/11/24 01:43:16;;;;;;;5.67;1.50;;;8.80;99.90;;;;;;5028455;28;20433;-67
2023/11/24 01:45:42;;;;;;;4.73;1.93;;;8.80;99.90;;;;;;5030581;28;20437;-67
2023/11/24 01:48:09;;;;;;;5.37;1.20;;;8.80;99.90;;;;;;5030560;28;20186;-67
2023/11/24 01:50:37;;;;;;;4.60;1.20;;;8.70;99.90;;;;;;5028947;28;20420;-67
2023/11/24 01:53:05;;;;;;;2.77;1.47;;;8.80;99.90;;;;;;5034125;28;20456;-68
2023/11/24 01:55:31;;;;;;;7.53;1.83;;;8.70;99.90;;;;;;5028782;28;20424;-68
2023/11/24 01:57:57;;;;;;;4.30;1.30;;;8.70;99.90;;;;;;5030295;28;20459;-68
2023/11/24 02:00:23;;;;;;;4.47;1.23;;;8.70;99.90;;;;;;5032903;28;20534;-68
2023/11/24 02:02:49;;;;;;;3.40;1.20;;;8.70;99.90;;;;;;5029388;28;20742;-68
2023/11/24 02:05:17;;;;;;;5.60;1.43;;;8.70;99.90;;;;;;5042829;28;20428;-68
2023/11/24 02:07:44;;;;;;;3.23;1.07;;;8.60;99.90;;;;;;5030208;28;20433;-68
2023/11/24 02:10:14;;;;;;;4.47;1.10;;;8.60;99.90;;;;;;5029528;28;20977;-68
2023/11/24 02:12:39;;;;;;;6.47;1.50;;;8.60;99.90;;;;;;5030381;28;20442;-68
2023/11/24 02:15:09;;;;;;;3.03;1.30;;;8.60;99.90;;;;;;5028831;28;20430;-68
2023/11/24 02:17:38;;;;;;;1.57;0.70;;;8.60;99.90;;;;;;5045081;28;20588;-68
2023/11/24 02:20:08;;;;;;;5.60;1.37;;;8.60;99.90;;;;;;5029352;28;21022;-68
2023/11/24 02:22:42;;;;;;;3.13;2.70;;;8.60;99.90;;;;;;5034056;28;20426;-68
2023/11/24 02:25:08;;;;;;;6.77;1.10;;;8.50;99.90;;;;;;5027583;28;20954;-68
2023/11/24 02:27:34;;;;;;;2.57;1.00;;;8.40;99.90;;;;;;5029232;28;20428;-68
2023/11/24 02:30:00;;;;;;;3.10;1.10;;;8.40;99.90;;;;;;5029766;28;20436;-68
2023/11/24 02:32:25;;;;;;;5.73;1.33;;;8.40;99.90;;;;;;5028901;28;20721;-68
2023/11/24 02:34:51;;;;;;;3.53;1.67;;;8.40;99.90;;;;;;5029344;28;20431;-68
2023/11/24 02:37:17;;;;;;;2.83;0.90;;;8.40;99.90;;;;;;5029419;28;20210;-68
2023/11/24 02:39:42;;;;;;;1.90;1.10;;;8.40;99.90;;;;;;5029019;28;20192;-68
2023/11/24 02:42:08;;;;;;;4.70;1.20;;;8.40;99.90;;;;;;5031012;28;20194;-68
2023/11/24 02:44:34;;;;;;;5.37;1.60;;;8.40;99.90;;;;;;5029447;28;20259;-68
2023/11/24 02:46:59;;;;;;;4.20;1.30;;;8.40;99.90;;;;;;5030358;28;20181;-68
2023/11/24 02:49:25;;;;;;;7.07;3.57;;;8.40;99.90;;;;;;5029993;28;20190;-68
2023/11/24 02:51:51;;;;;;;8.10;1.10;;;8.40;99.90;;;;;;5030441;28;20527;-69
2023/11/24 02:54:16;;;;;;;2.80;0.83;;;8.30;99.90;;;;;;5029972;28;20988;-69
2023/11/24 02:56:42;;;;;;;5.67;1.50;;;8.30;99.90;;;;;;5031047;28;20243;-68
2023/11/24 02:59:08;;;;;;;1.37;1.00;;;8.30;99.90;;;;;;5032292;28;20195;-68
2023/11/24 03:01:34;;;;;;;1.57;1.03;;;8.30;99.90;;;;;;5031150;28;20786;-68
2023/11/24 03:03:59;;;;;;;9.50;1.30;;;8.20;99.90;;;;;;5029807;28;20200;-69
2023/11/24 03:06:25;;;;;;;6.07;1.47;;;8.30;99.90;;;;;;5030280;28;20174;-68
2023/11/24 03:08:51;;;;;;;3.50;1.30;;;8.20;99.90;;;;;;5030624;28;20292;-69
2023/11/24 03:11:16;;;;;;;5.90;1.40;;;8.20;99.90;;;;;;5030931;28;20185;-69
2023/11/24 03:13:42;;;;;;;6.53;1.47;;;8.20;99.90;;;;;;5026470;28;20292;-68
2023/11/24 03:16:08;;;;;;;5.60;1.73;;;8.30;99.90;;;;;;5029406;28;20275;-68
2023/11/24 03:18:33;;;;;;;6.57;2.00;;;8.30;99.90;;;;;;5029134;28;20182;-67
2023/11/24 03:20:59;;;;;;;2.70;1.93;;;8.30;99.90;;;;;;5029235;28;21024;-68
2023/11/24 03:23:25;;;;;;;8.70;1.53;;;8.30;99.90;;;;;;5028658;28;20189;-68
2023/11/24 03:25:51;;;;;;;7.50;1.60;;;8.30;99.90;;;;;;5028216;28;21103;-68
2023/11/24 03:28:18;;;;;;;6.53;1.97;;;8.30;99.90;;;;;;5029270;28;20706;-67
2023/11/24 03:30:44;;;;;;;5.77;2.30;;;8.30;99.90;;;;;;5028736;28;21245;-68
2023/11/24 03:33:10;;;;;;;6.20;1.80;;;8.20;99.90;;;;;;5029246;28;21031;-67
2023/11/24 03:35:36;;;;;;;6.53;1.80;;;8.20;99.90;;;;;;5027908;28;20435;-67
2023/11/24 03:38:01;;;;;;;6.93;2.20;;;8.20;99.90;;;;;;5029648;28;20194;-68
2023/11/24 03:40:27;;;;;;;8.17;2.87;;;8.20;99.90;;;;;;5029499;28;20209;-67
2023/11/24 03:42:53;;;;;;;8.40;2.30;;;8.20;99.90;;;;;;5030470;28;20229;-67
2023/11/24 03:45:19;;;;;;;8.47;2.63;;;8.20;99.90;;;;;;5033182;28;20663;-68
2023/11/24 03:47:44;;;;;;;8.60;3.40;;;8.20;99.90;;;;;;5031981;28;20479;-68
2023/11/24 03:50:11;;;;;;;8.43;2.40;;;8.20;99.90;;;;;;5033346;28;20297;-68
2023/11/24 03:52:36;;;;;;;10.87;2.30;;;8.20;99.90;;;;;;5033294;28;20177;-67
2023/11/24 03:55:03;;;;;;;4.97;1.63;;;8.20;99.90;;;;;;5031485;28;20455;-67
2023/11/24 03:57:29;;;;;;;6.47;3.23;;;8.20;99.90;;;;;;5032168;28;20691;-68
2023/11/24 03:59:55;;;;;;;5.97;2.20;;;8.20;99.90;;;;;;5032152;28;20568;-67
2023/11/24 04:02:20;;;;;;;9.27;2.33;;;8.30;99.90;;;;;;5032545;28;20190;-68
2023/11/24 04:04:46;;;;;;;6.40;2.57;;;8.30;99.90;;;;;;5031073;28;20221;-68
2023/11/24 04:07:13;;;;;;;6.60;1.53;;;8.30;99.90;;;;;;5031890;28;20178;-68
2023/11/24 04:09:39;;;;;;;6.20;1.97;;;8.20;99.90;;;;;;5032216;28;20178;-68
2023/11/24 04:12:05;;;;;;;8.60;2.03;;;8.30;99.90;;;;;;5031807;28;20927;-67
2023/11/24 04:14:30;;;;;;;4.80;2.03;;;8.30;99.90;;;;;;5030348;28;20247;-68
2023/11/24 04:16:56;;;;;;;5.30;2.07;;;8.30;99.90;;;;;;5031977;28;20481;-67
2023/11/24 04:19:22;;;;;;;7.60;1.87;;;8.30;99.90;;;;;;5032116;28;20244;-68
2023/11/24 04:21:47;;;;;;;6.37;2.03;;;8.20;99.90;;;;;;5032217;28;20189;-68
2023/11/24 04:24:13;;;;;;;5.80;2.00;;;8.20;99.90;;;;;;5030593;28;20190;-67
2023/11/24 04:26:39;;;;;;;5.90;1.77;;;8.20;99.90;;;;;;5036126;28;20699;-67
2023/11/24 04:29:05;;;;;;;7.00;2.00;;;8.30;99.90;;;;;;5031674;28;20177;-68
2023/11/24 04:31:31;;;;;;;10.00;2.37;;;8.30;99.90;;;;;;5032126;28;20195;-67
2023/11/24 04:33:57;;;;;;;8.40;2.00;;;8.30;99.90;;;;;;5030938;28;20466;-67
2023/11/24 04:36:23;;;;;;;5.40;1.70;;;8.30;99.90;;;;;;5032791;28;20484;-67
2023/11/24 04:38:49;;;;;;;8.77;2.33;;;8.30;99.90;;;;;;5031692;28;20193;-67
2023/11/24 04:41:15;;;;;;;4.97;1.60;;;8.40;99.90;;;;;;5030797;28;20292;-67
2023/11/24 04:43:41;;;;;;;3.93;1.60;;;8.30;99.90;;;;;;5031934;28;20432;-67
2023/11/24 04:46:10;;;;;;;6.53;2.80;;;8.30;99.90;;;;;;5031181;28;20502;-67
2023/11/24 04:48:38;;;;;;;7.60;3.17;;;8.20;99.90;;;;;;5031085;28;20217;-68
2023/11/24 04:51:05;;;;;;;7.20;2.27;;;8.30;99.90;;;;;;5031648;28;20432;-67
2023/11/24 04:53:33;;;;;;;6.07;2.03;;;8.20;99.90;;;;;;5029536;28;20436;-67
2023/11/24 04:55:59;;;;;;;4.90;1.63;;;8.20;99.90;;;;;;5030845;28;20474;-67
2023/11/24 04:58:24;;;;;;;5.60;2.23;;;8.20;99.90;;;;;;5031639;28;20436;-67
2023/11/24 05:00:50;;;;;;;7.93;2.27;;;8.10;99.90;;;;;;5031147;28;20189;-68
2023/11/24 05:03:16;;;;;;;3.97;1.43;;;8.10;99.90;;;;;;5030677;28;20648;-68
2023/11/24 05:05:42;;;;;;;7.30;1.93;;;8.20;99.90;;;;;;5029677;28;20435;-68
2023/11/24 05:08:08;;;;;;;3.90;1.50;;;8.10;99.90;;;;;;5031336;28;20407;-67
2023/11/24 05:10:33;;;;;;;4.50;1.37;;;7.90;99.90;;;;;;5031412;28;20241;-68
2023/11/24 05:12:59;;;;;;;2.47;0.93;;;7.90;99.90;;;;;;5030953;28;21027;-68
2023/11/24 05:15:25;;;;;;;5.43;1.53;;;7.80;99.90;;;;;;5030979;28;20228;-68
2023/11/24 05:17:51;;;;;;;4.47;1.17;;;7.70;99.90;;;;;;5030584;28;20217;-67
2023/11/24 05:20:18;;;;;;;7.70;3.13;;;7.50;99.90;;;;;;5029384;28;20186;-67
2023/11/24 05:22:44;;;;;;;3.43;1.60;;;7.40;99.90;;;;;;5031308;28;20480;-67
2023/11/24 05:25:10;;;;;;;5.20;1.00;;;7.40;99.90;;;;;;5029110;28;20846;-68
2023/11/24 05:27:36;;;;;;;4.37;1.30;;;7.30;99.90;;;;;;5031359;28;20436;-67
2023/11/24 05:30:07;;;;;;;4.33;1.13;;;7.30;99.90;;;;;;5030498;28;20267;-67
2023/11/24 05:32:34;;;;;;;8.03;1.10;;;7.20;99.90;;;;;;5029828;28;20189;-68
2023/11/24 05:35:01;;;;;;;6.27;1.40;;;7.10;99.90;;;;;;5029678;28;20439;-68
2023/11/24 05:37:27;;;;;;;4.00;1.50;;;7.10;99.90;;;;;;5029629;28;20491;-67
2023/11/24 05:39:53;;;;;;;5.83;1.60;;;7.10;99.90;;;;;;5029922;28;20458;-68
2023/11/24 05:42:18;;;;;;;5.17;1.60;;;7.10;99.90;;;;;;5019468;28;20440;-68
2023/11/24 05:44:44;;;;;;;4.53;1.27;;;7.10;99.90;;;;;;5030555;28;20425;-68
2023/11/24 05:47:10;;;;;;;5.13;1.70;;;7.10;99.90;;;;;;5050862;28;20276;-67
2023/11/24 05:49:35;;;;;;;6.73;2.27;;;7.10;99.90;;;;;;5044325;28;20186;-67
2023/11/24 05:52:01;;;;;;;3.30;1.43;;;7.10;99.90;;;;;;5029877;28;20251;-68
2023/11/24 05:54:27;;;;;;;4.37;1.93;;;7.10;99.90;;;;;;5029689;28;20193;-67
2023/11/24 05:56:52;;;;;;;4.70;1.47;;;7.10;99.90;;;;;;5028289;28;20621;-68
2023/11/24 05:59:18;;;;;;;5.63;1.63;;;7.10;99.90;;;;;;5030365;28;20185;-68
2023/11/24 06:01:45;;;;;;;5.80;2.73;;;7.20;99.90;;;;;;5043940;28;20285;-68
2023/11/24 06:04:11;;;;;;;3.93;1.50;;;7.20;99.90;;;;;;5027645;28;20194;-67
2023/11/24 06:06:37;;;;;;;3.73;1.30;;;7.20;99.90;;;;;;5043402;28;20975;-67
2023/11/24 06:09:03;;;;;;;1.80;1.40;;;7.20;99.90;;;;;;5029826;28;20192;-68
2023/11/24 06:11:29;;;;;;;3.87;1.77;;;7.20;99.90;;;;;;5028680;28;20219;-67
2023/11/24 06:13:54;;;;;;;5.77;1.80;;;7.20;99.90;;;;;;5027801;28;20429;-67
2023/11/24 06:16:23;;;;;;;6.93;1.80;;;7.30;99.90;;;;;;5029601;28;21049;-67
2023/11/24 06:18:48;;;;;;;5.90;2.47;;;7.30;99.90;;;;;;5029371;28;20436;-67
2023/11/24 06:21:14;;;;;;;4.30;1.73;;;7.40;99.90;;;;;;5028809;28;21572;-67
2023/11/24 06:23:43;;;;;;;6.90;2.67;;;7.40;99.90;;;;;;5028517;28;20202;-67
2023/11/24 06:26:09;;;;;;;7.23;2.40;;;7.50;99.90;;;;;;5028227;28;20185;-67
2023/11/24 06:28:35;;;;;;;5.67;2.10;;;7.40;99.90;;;;;;5028778;28;20424;-67
2023/11/24 06:31:01;;;;;;;4.70;1.90;;;7.50;99.90;;;;;;5029800;28;20485;-68
2023/11/24 06:33:27;;;;;;;8.83;2.73;;;7.50;99.90;;;;;;5027641;28;20727;-67
2023/11/24 06:35:55;;;;;;;4.40;1.70;;;7.50;99.90;;;;;;5028672;28;20240;-67
2023/11/24 06:38:21;;;;;;;7.73;2.67;;;7.50;99.90;;;;;;5027697;28;21345;-68
2023/11/24 06:40:46;;;;;;;4.40;2.20;;;7.50;99.90;;;;;;5042938;28;20826;-68
2023/11/24 06:43:12;;;;;;;8.37;2.70;;;7.50;99.90;;;;;;5027535;28;20429;-67
2023/11/24 06:45:38;;;;;;;6.30;2.07;;;7.50;99.90;;;;;;5029051;28;20715;-67
2023/11/24 06:48:05;;;;;;;9.43;3.40;;;7.50;99.90;;;;;;5027985;28;20912;-67
2023/11/24 06:50:31;;;;;;;6.70;2.50;;;7.50;99.90;;;;;;5043645;28;20503;-67
2023/11/24 06:52:57;;;;;;;5.23;2.07;;;7.50;99.90;;;;;;5027643;28;20529;-68
2023/11/24 06:55:23;;;;;;;8.93;2.60;;;7.50;99.90;;;;;;5027488;28;21273;-68
2023/11/24 06:57:48;;;;;;;6.77;2.30;;;7.60;99.90;;;;;;5028478;28;20225;-68
2023/11/24 07:00:17;;;;;;;5.83;2.40;;;7.60;99.90;;;;;;5028460;28;20190;-68
2023/11/24 07:02:46;;;;;;;7.87;2.70;;;7.60;99.90;;;;;;5027516;28;20721;-68
2023/11/24 07:05:11;;;;;;;3.30;1.57;;;7.60;99.90;;;;;;5027515;28;20558;-67
2023/11/24 07:07:38;;;;;;;6.67;1.77;;;7.60;99.90;;;;;;5028637;28;20952;-68
2023/11/24 07:10:07;;;;;;;2.80;1.97;;;7.70;99.90;;;;;;5025499;28;20205;-68
2023/11/24 07:12:33;;;;;;;6.00;2.10;;;7.70;99.90;;;;;;5027225;28;20441;-67
2023/11/24 07:15:02;;;;;;;4.73;1.83;;;7.70;99.90;;;;;;5028071;28;20767;-68
2023/11/24 07:17:31;;;;;;;4.67;1.97;;;7.70;99.90;;;;;;5029349;28;20476;-67
2023/11/24 07:19:57;;;;;;;10.13;2.10;;;7.60;99.90;;;;;;5033577;28;20428;-68
2023/11/24 07:22:24;;;;;;;4.07;1.80;;;7.60;99.90;;;;;;5031434;28;20430;-68
2023/11/24 07:24:51;;;;;;;3.33;1.50;;;7.50;99.90;;;;;;5032353;28;20442;-68
2023/11/24 07:27:17;;;;;;;6.50;2.07;;;7.40;99.90;;;;;;5032401;28;20447;-68
2023/11/24 07:29:43;;;;;;;4.80;1.70;;;7.40;99.90;;;;;;5033131;28;20429;-68
2023/11/24 07:32:14;;;;;;;5.33;2.67;;;7.50;99.90;;;;;;5037317;28;20464;-67
2023/11/24 07:34:40;;;;;;;4.33;1.63;;;7.50;99.90;;;;;;5032332;28;20642;-68
2023/11/24 07:37:06;;;;;;;6.77;1.70;;;7.50;99.90;;;;;;5031377;28;20476;-68
2023/11/24 07:39:33;;;;;;;7.00;1.90;;;7.50;99.90;;;;;;5031980;28;20430;-67
2023/11/24 07:41:59;;;;;;;7.07;1.80;;;7.40;99.90;;;;;;5032510;28;20239;-67
2023/11/24 07:44:27;;;;;;;4.10;1.70;;;7.40;99.90;;;;;;5031710;28;20439;-68
2023/11/24 07:46:53;;;;;;;3.80;2.00;;;7.50;99.90;;;;;;5046684;28;20483;-68
2023/11/24 07:49:19;;;;;;;3.47;1.83;;;7.50;99.90;;;;;;5032578;28;20481;-68
2023/11/24 07:51:44;;;;;;;7.27;1.53;;;7.50;99.90;;;;;;5034825;28;20424;-68
2023/11/24 07:54:10;;;;;;;5.87;1.70;;;7.50;99.90;;;;;;5030041;28;20235;-67
2023/11/24 07:56:36;;;;;;;5.03;2.30;;;7.50;99.90;;;;;;5031110;28;20329;-68
2023/11/24 07:59:02;;;;;;;4.77;2.07;;;7.40;99.90;;;;;;5031890;28;20186;-68
2023/11/24 08:01:27;;;;;;;4.67;2.40;;;7.30;99.90;;;;;;5031047;28;20190;-68
2023/11/24 08:03:53;;;;;;;6.43;1.80;;;7.30;99.90;;;;;;5030562;28;20560;-68
2023/11/24 08:06:19;;;;;;;5.70;1.83;;;7.30;99.90;;;;;;5030514;28;20184;-68
2023/11/24 08:08:45;;;;;;;4.80;1.83;;;7.20;99.90;;;;;;5030959;28;20244;-68
2023/11/24 08:11:10;;;;;;;5.00;2.00;;;7.30;99.90;;;;;;5030753;28;20626;-68
2023/11/24 08:13:36;;;;;;;4.70;1.60;;;7.30;99.90;;;;;;5030222;28;20209;-68
2023/11/24 08:16:03;;;;;;;6.67;2.10;;;7.30;99.90;;;;;;5030902;28;20210;-68
2023/11/24 08:18:29;;;;;;;7.10;2.10;;;7.20;99.90;;;;;;5031091;28;20186;-68
2023/11/24 08:20:54;;;;;;;5.23;1.90;;;7.20;99.90;;;;;;5031650;28;20494;-68
2023/11/24 08:23:21;;;;;;;7.70;2.60;;;7.30;99.90;;;;;;5030120;28;20483;-68
2023/11/24 08:25:48;;;;;;;3.10;1.70;;;7.50;99.90;;;;;;5031181;28;20513;-68
2023/11/24 08:28:17;;;;;;;5.33;1.60;;;7.70;99.90;;;;;;5029590;28;20433;-68
2023/11/24 08:30:43;;;;;;;5.63;1.80;;;7.80;99.90;;;;;;5031355;28;20421;-68
2023/11/24 08:33:09;;;;;;;4.07;2.00;;;7.70;99.90;;;;;;5030661;28;20436;-68
2023/11/24 08:35:34;;;;;;;5.17;1.77;;;7.70;99.90;;;;;;5030799;28;20921;-68
2023/11/24 08:38:03;;;;;;;4.80;1.30;;;7.80;99.90;;;;;;5031341;28;20279;-68
2023/11/24 08:40:29;;;;;;;2.93;1.60;;;7.90;99.90;;;;;;5030769;28;20214;-68
2023/11/24 08:42:56;;;;;;;2.63;1.90;;;7.90;99.90;;;;;;5030695;28;20514;-68
2023/11/24 08:45:23;;;;;;;4.60;2.20;;;7.90;99.90;;;;;;5030259;28;20548;-68
2023/11/24 08:47:49;;;;;;;7.73;2.67;;;7.90;99.90;;;;;;5031041;28;20519;-68
2023/11/24 08:50:17;;;;;;;7.20;2.50;;;7.80;99.90;;;;;;5029752;28;20520;-67
2023/11/24 08:52:47;;;;;;;2.80;1.60;;;7.60;99.90;;;;;;5031387;28;20433;-68
2023/11/24 08:55:13;;;;;;;6.40;3.20;;;7.60;99.90;;;;;;5030123;28;20936;-68
2023/11/24 08:57:39;;;;;;;6.47;2.57;;;7.60;99.90;;;;;;5045151;28;20472;-67
2023/11/24 09:00:06;;;;;;;5.33;1.67;;;7.50;99.90;;;;;;5030936;28;20502;-68
2023/11/24 09:02:32;;;;;;;6.97;3.27;;;7.50;99.90;;;;;;5030252;28;20711;-67
2023/11/24 09:04:58;;;;;;;3.20;1.40;;;7.50;99.90;;;;;;5030296;28;20540;-67
2023/11/24 09:07:23;;;;;;;4.87;1.40;;;7.50;99.90;;;;;;5029511;28;20774;-67
2023/11/24 09:09:52;;;;;;;4.40;1.57;;;7.50;99.90;;;;;;5032026;28;20201;-68
2023/11/24 09:12:17;;;;;;;3.00;1.20;;;7.50;99.90;;;;;;5029894;28;20949;-68
2023/11/24 09:14:43;;;;;;;1.67;0.90;;;7.60;99.90;;;;;;5029618;28;20435;-68
2023/11/24 09:17:09;;;;;;;4.90;1.43;;;7.70;99.90;;;;;;5030356;28;20292;-68
2023/11/24 09:19:35;;;;;;;3.03;1.93;;;7.90;99.90;;;;;;5029581;28;20744;-68
2023/11/24 09:22:03;;;;;;;2.63;1.30;;;7.90;99.90;;;;;;5030429;28;20435;-68
2023/11/24 09:24:29;;;;;;;4.10;1.10;;;8.10;99.90;;;;;;5028585;28;20856;-68
2023/11/24 09:26:55;;;;;;;2.57;0.93;;;8.30;99.90;;;;;;5036126;28;20437;-68
2023/11/24 09:29:23;;;;;;;2.73;1.03;;;8.40;99.90;;;;;;5029656;28;20972;-68
2023/11/24 09:31:49;;;;;;;2.03;1.00;;;8.40;99.90;;;;;;5030414;28;20242;-68
2023/11/24 09:34:14;;;;;;;6.00;1.13;;;8.40;99.90;;;;;;5029329;28;20951;-68
2023/11/24 09:36:42;;;;;;;2.40;0.97;;;8.30;99.90;;;;;;5029679;28;20217;-68
2023/11/24 09:39:10;;;;;;;2.97;0.97;;;8.20;99.90;;;;;;5030596;28;20706;-68
2023/11/24 09:41:40;;;;;;;2.53;0.97;;;8.20;99.90;;;;;;5030049;28;20444;-68
2023/11/24 09:44:10;;;;;;;2.97;1.23;;;8.10;99.90;;;;;;5029669;28;20536;-68
2023/11/24 09:46:38;;;;;;;3.00;1.50;;;8.00;99.90;;;;;;5029482;28;20452;-68
2023/11/24 09:49:07;;;;;;;4.27;2.37;;;7.90;99.90;;;;;;5030271;28;20499;-68
2023/11/24 09:51:34;;;;;;;3.57;1.20;;;7.90;99.90;;;;;;5028459;28;20432;-68
2023/11/24 09:54:02;;;;;;;3.50;1.20;;;7.90;99.90;;;;;;5029200;28;20498;-67
2023/11/24 09:56:28;;;;;;;4.60;1.37;;;7.80;99.90;;;;;;5029182;28;20487;-68
2023/11/24 09:58:54;;;;;;;2.80;1.40;;;7.80;99.90;;;;;;5035977;28;20724;-68
2023/11/24 10:01:23;;;;;;;3.47;1.07;;;7.80;99.90;;;;;;5030109;28;20181;-68
2023/11/24 10:03:53;;;;;;;4.43;1.60;;;7.70;99.90;;;;;;5029219;28;20270;-68
2023/11/24 10:06:19;;;;;;;2.87;1.27;;;7.60;99.90;;;;;;5033438;28;20431;-68
2023/11/24 10:08:49;;;;;;;3.20;1.27;;;7.60;99.90;;;;;;5005604;28;20746;-68
2023/11/24 10:11:17;;;;;;;2.20;1.30;;;7.70;99.90;;;;;;5028774;28;20424;-69
2023/11/24 10:13:45;;;;;;;3.50;1.40;;;7.70;99.90;;;;;;5030030;28;20512;-68
2023/11/24 10:16:11;;;;;;;4.50;2.50;;;7.80;99.90;;;;;;5028557;28;21042;-68
2023/11/24 10:18:38;;;;;;;4.50;1.70;;;7.70;99.90;;;;;;5030634;28;20442;-67
2023/11/24 10:21:11;;;;;;;4.00;1.63;;;7.70;99.90;;;;;;5027842;28;20431;-67
2023/11/24 10:23:38;;;;;;;4.33;1.30;;;7.70;99.90;;;;;;5029438;28;20437;-67
2023/11/24 10:26:18;;;;;;;5.40;1.80;;;7.70;99.90;;;;;;5028551;28;20467;-67
2023/11/24 10:28:44;;;;;;;4.23;1.30;;;7.70;99.90;;;;;;5043249;28;20861;-67
2023/11/24 10:31:13;;;;;;;4.00;1.30;;;7.50;99.90;;;;;;5028753;28;20476;-67
2023/11/24 10:33:45;;;;;;;5.40;0.90;;;7.50;99.90;;;;;;5028080;28;20424;-67
2023/11/24 10:36:10;;;;;;;1.80;0.90;;;7.40;99.90;;;;;;5028868;28;20459;-67
2023/11/24 10:38:41;;;;;;;1.87;0.90;;;7.50;99.90;;;;;;5029581;28;20481;-69
2023/11/24 10:41:18;;;;;;;1.80;1.10;;;7.60;99.90;;;;;;5029293;28;20206;-68
2023/11/24 10:43:47;;;;;;;2.43;0.87;;;7.50;99.90;;;;;;5028704;28;20440;-68
2023/11/24 10:46:16;;;;;;;2.40;1.10;;;7.50;99.90;;;;;;5028774;28;20482;-68
2023/11/24 10:49:05;;;;;;;2.97;1.30;;;7.50;99.90;;;;;;5029095;28;20434;-68
2023/11/24 10:51:40;;;;;;;3.50;2.73;;;7.60;99.90;;;;;;5031511;28;21089;-69
2023/11/24 10:54:12;;;;;;;2.73;1.40;;;7.60;99.90;;;;;;5033978;28;20524;-68
2023/11/24 10:56:39;;;;;;;1.63;0.90;;;7.50;99.90;;;;;;5036573;28;20460;-69
2023/11/24 10:59:07;;;;;;;0.90;0.90;;;7.50;99.90;;;;;;5035610;28;20433;-68
2023/11/24 11:01:33;;;;;;;4.67;1.00;;;7.40;99.90;;;;;;5034953;28;20860;-68
2023/11/24 11:03:59;;;;;;;2.47;1.23;;;7.30;99.90;;;;;;5056562;28;20459;-68
2023/11/24 11:06:49;;;;;;;3.20;1.00;;;7.20;99.90;;;;;;5036227;28;20189;-68
2023/11/24 11:09:29;;;;;;;4.13;0.90;;;7.20;99.90;;;;;;5035685;28;20428;-68
2023/11/24 11:12:19;;;;;;;2.40;0.60;;;7.10;99.90;;;;;;5034558;28;20801;-68
2023/11/24 11:14:46;;;;;;;1.20;0.90;;;6.90;99.90;;;;;;5035598;28;20444;-68
2023/11/24 11:17:17;;;;;;;1.50;0.90;;;7.00;99.90;;;;;;5034876;28;21005;-69
2023/11/24 11:20:06;;;;;;;2.20;1.13;;;7.00;99.90;;;;;;5049063;28;20530;-69
2023/11/24 11:22:37;;;;;;;1.40;0.80;;;7.00;99.90;;;;;;5039574;28;20511;-68
2023/11/24 11:25:13;;;;;;;1.33;0.73;;;7.00;99.90;;;;;;5034849;28;20452;-68
2023/11/24 11:27:39;;;;;;;1.37;0.70;;;7.00;99.90;;;;;;5057268;28;20459;-68
2023/11/24 11:30:27;;;;;;;1.67;0.83;;;6.90;99.90;;;;;;5035250;28;20851;-67
2023/11/24 11:33:04;;;;;;;2.40;0.83;;;7.00;99.90;;;;;;5035358;28;20497;-68
2023/11/24 11:35:33;;;;;;;0.97;0.60;;;7.20;99.90;;;;;;5034952;28;20431;-68
2023/11/24 11:37:59;;;;;;;1.00;0.60;;;7.30;99.90;;;;;;5033476;28;20467;-68
2023/11/24 11:40:26;;;;;;;1.10;0.60;;;7.40;99.90;;;;;;5035944;28;20466;-68
2023/11/24 11:42:59;;;;;;;2.00;0.70;;;7.50;99.90;;;;;;5035323;28;21018;-68
2023/11/24 11:45:29;;;;;;;1.40;0.50;;;7.70;99.90;;;;;;5035108;28;20432;-68
2023/11/24 11:48:03;;;;;;;4.63;0.93;;;7.90;99.90;;;;;;5034901;28;20525;-68
2023/11/24 11:50:33;;;;;;;2.53;0.80;;;8.00;99.90;;;;;;5035595;28;20432;-68
2023/11/24 11:53:01;;;;;;;0.90;0.70;;;8.00;99.90;;;;;;5039860;28;20834;-68
2023/11/24 11:55:31;;;;;;;3.60;0.90;;;8.10;99.90;;;;;;5035670;28;20501;-68
2023/11/24 11:58:00;;;;;;;1.20;0.90;;;8.00;99.90;;;;;;5034618;28;20505;-68
2023/11/24 12:00:26;;;;;;;2.07;1.23;;;8.00;99.90;;;;;;5035904;28;20443;-68
2023/11/24 12:02:54;;;;;;;2.90;1.27;;;8.00;99.90;;;;;;5033034;28;20444;-68
2023/11/24 12:05:21;;;;;;;2.43;1.03;;;7.80;99.90;;;;;;5030994;28;20486;-68
2023/11/24 12:07:48;;;;;;;3.80;1.67;;;7.80;99.90;;;;;;5031365;28;20440;-68
2023/11/24 12:10:14;;;;;;;4.67;1.50;;;7.70;99.90;;;;;;5037121;28;20959;-68
2023/11/24 12:12:44;;;;;;;4.83;1.40;;;7.70;99.90;;;;;;5031956;28;20427;-69
2023/11/24 12:15:10;;;;;;;2.17;0.83;;;7.60;99.90;;;;;;5036621;28;20464;-68
2023/11/24 12:17:37;;;;;;;2.83;0.93;;;7.60;99.90;;;;;;5031617;28;20570;-68
2023/11/24 12:20:10;;;;;;;8.60;1.70;;;7.60;99.90;;;;;;5031764;28;20915;-68
2023/11/24 12:22:37;;;;;;;7.53;1.60;;;7.40;99.90;;;;;;5053534;28;20497;-68
2023/11/24 12:25:04;;;;;;;3.03;0.80;;;7.40;99.90;;;;;;5031362;28;20436;-68
2023/11/24 12:27:33;;;;;;;3.37;1.33;;;7.30;99.90;;;;;;5044341;28;20430;-68
2023/11/24 12:30:07;;;;;;;3.37;1.20;;;7.50;99.90;;;;;;5031012;28;20508;-67
2023/11/24 12:32:34;;;;;;;6.23;1.70;;;7.40;99.90;;;;;;5053802;28;20494;-68
2023/11/24 12:35:00;;;;;;;3.47;1.53;;;7.30;99.90;;;;;;5035956;28;20429;-68
2023/11/24 12:37:29;;;;;;;4.80;1.30;;;7.30;99.90;;;;;;5013868;28;20542;-68
2023/11/24 12:39:54;;;;;;;2.40;1.20;;;7.40;99.90;;;;;;5053523;28;20464;-68
2023/11/24 12:42:23;;;;;;;5.80;1.63;;;7.40;99.90;;;;;;5030857;28;20851;-68
2023/11/24 12:44:50;;;;;;;2.30;1.40;;;7.40;99.90;;;;;;5030148;28;20252;-68
2023/11/24 12:47:23;;;;;;;1.90;0.90;;;7.30;99.90;;;;;;5031668;28;20553;-68
2023/11/24 12:50:06;;;;;;;3.07;1.60;;;7.30;99.90;;;;;;5031767;28;20947;-68
2023/11/24 12:52:34;;;;;;;2.57;1.20;;;7.30;99.90;;;;;;5031785;28;20439;-68
2023/11/24 12:55:07;;;;;;;2.87;1.33;;;7.30;99.90;;;;;;5030012;28;20438;-67